sensor_id;sensor_type;location;lat;lon;timestamp;P1;durP1;ratioP1;P2;durP2;ratioP2
16705;SDS011;8469;60.136;15.180;2023-04-28T00:02:01;0.70;;;0.70;;
16705;SDS011;8469;60.136;15.180;2023-04-28T00:04:29;4.53;;;0.90;;
16705;SDS011;8469;60.136;15.180;2023-04-28T00:06:56;0.80;;;0.60;;
16705;SDS011;8469;60.136;15.180;2023-04-28T00:09:23;0.60;;;0.60;;
16705;SDS011;8469;60.136;15.180;2023-04-28T00:11:51;0.80;;;0.65;;
16705;SDS011;8469;60.136;15.180;2023-04-28T00:14:18;0.82;;;0.80;;
16705;SDS011;8469;60.136;15.180;2023-04-28T00:16:46;0.70;;;0.70;;
16705;SDS011;8469;60.136;15.180;2023-04-28T00:19:13;0.65;;;0.65;;
16705;SDS011;8469;60.136;15.180;2023-04-28T00:21:40;0.70;;;0.70;;
16705;SDS011;8469;60.136;15.180;2023-04-28T00:24:07;0.60;;;0.60;;
16705;SDS011;8469;60.136;15.180;2023-04-28T00:26:35;0.70;;;0.70;;
16705;SDS011;8469;60.136;15.180;2023-04-28T00:29:02;0.82;;;0.70;;
16705;SDS011;8469;60.136;15.180;2023-04-28T00:31:30;0.70;;;0.70;;
16705;SDS011;8469;60.136;15.180;2023-04-28T00:33:57;0.75;;;0.75;;
16705;SDS011;8469;60.136;15.180;2023-04-28T00:36:24;1.72;;;0.78;;
16705;SDS011;8469;60.136;15.180;2023-04-28T00:38:52;1.30;;;0.90;;
16705;SDS011;8469;60.136;15.180;2023-04-28T00:41:19;0.90;;;0.80;;
16705;SDS011;8469;60.136;15.180;2023-04-28T00:43:47;1.07;;;0.70;;
16705;SDS011;8469;60.136;15.180;2023-04-28T00:46:21;0.68;;;0.50;;
16705;SDS011;8469;60.136;15.180;2023-04-28T00:48:49;0.60;;;0.60;;
16705;SDS011;8469;60.136;15.180;2023-04-28T00:58:56;0.70;;;0.70;;
16705;SDS011;8469;60.136;15.180;2023-04-28T01:01:24;0.75;;;0.75;;
16705;SDS011;8469;60.136;15.180;2023-04-28T01:03:51;0.90;;;0.80;;
16705;SDS011;8469;60.136;15.180;2023-04-28T01:06:18;0.72;;;0.70;;
16705;SDS011;8469;60.136;15.180;2023-04-28T01:08:50;2.10;;;0.80;;
16705;SDS011;8469;60.136;15.180;2023-04-28T01:11:16;1.90;;;0.85;;
16705;SDS011;8469;60.136;15.180;2023-04-28T01:13:43;3.13;;;0.97;;
16705;SDS011;8469;60.136;15.180;2023-04-28T01:16:10;0.85;;;0.85;;
16705;SDS011;8469;60.136;15.180;2023-04-28T01:18:40;1.30;;;0.95;;
16705;SDS011;8469;60.136;15.180;2023-04-28T01:21:07;0.60;;;0.60;;
16705;SDS011;8469;60.136;15.180;2023-04-28T01:23:34;0.72;;;0.70;;
16705;SDS011;8469;60.136;15.180;2023-04-28T01:26:01;1.70;;;0.70;;
16705;SDS011;8469;60.136;15.180;2023-04-28T01:28:29;1.60;;;0.60;;
16705;SDS011;8469;60.136;15.180;2023-04-28T01:30:56;0.78;;;0.78;;
16705;SDS011;8469;60.136;15.180;2023-04-28T01:33:24;0.60;;;0.60;;
16705;SDS011;8469;60.136;15.180;2023-04-28T01:35:55;0.70;;;0.70;;
16705;SDS011;8469;60.136;15.180;2023-04-28T01:38:20;0.90;;;0.80;;
16705;SDS011;8469;60.136;15.180;2023-04-28T01:40:47;0.70;;;0.70;;
16705;SDS011;8469;60.136;15.180;2023-04-28T01:43:15;0.72;;;0.72;;
16705;SDS011;8469;60.136;15.180;2023-04-28T01:45:42;0.70;;;0.70;;
16705;SDS011;8469;60.136;15.180;2023-04-28T01:48:12;0.60;;;0.60;;
16705;SDS011;8469;60.136;15.180;2023-04-28T01:50:39;0.82;;;0.82;;
16705;SDS011;8469;60.136;15.180;2023-04-28T01:53:06;0.70;;;0.67;;
16705;SDS011;8469;60.136;15.180;2023-04-28T01:55:33;1.10;;;0.60;;
16705;SDS011;8469;60.136;15.180;2023-04-28T01:58:01;1.85;;;0.85;;
16705;SDS011;8469;60.136;15.180;2023-04-28T02:00:28;0.60;;;0.60;;
16705;SDS011;8469;60.136;15.180;2023-04-28T02:02:56;0.70;;;0.70;;
16705;SDS011;8469;60.136;15.180;2023-04-28T02:05:23;1.30;;;0.78;;
16705;SDS011;8469;60.136;15.180;2023-04-28T02:07:50;0.78;;;0.78;;
16705;SDS011;8469;60.136;15.180;2023-04-28T02:10:18;0.80;;;0.80;;
16705;SDS011;8469;60.136;15.180;2023-04-28T02:12:45;0.80;;;0.80;;
16705;SDS011;8469;60.136;15.180;2023-04-28T02:15:13;0.60;;;0.60;;
16705;SDS011;8469;60.136;15.180;2023-04-28T02:17:40;0.67;;;0.67;;
16705;SDS011;8469;60.136;15.180;2023-04-28T02:20:08;0.80;;;0.80;;
16705;SDS011;8469;60.136;15.180;2023-04-28T02:22:36;0.72;;;0.72;;
16705;SDS011;8469;60.136;15.180;2023-04-28T02:25:03;0.78;;;0.78;;
16705;SDS011;8469;60.136;15.180;2023-04-28T02:27:31;0.78;;;0.78;;
16705;SDS011;8469;60.136;15.180;2023-04-28T02:29:58;0.90;;;0.90;;
16705;SDS011;8469;60.136;15.180;2023-04-28T02:32:25;0.80;;;0.80;;
16705;SDS011;8469;60.136;15.180;2023-04-28T02:34:53;0.68;;;0.68;;
16705;SDS011;8469;60.136;15.180;2023-04-28T02:37:21;1.20;;;0.82;;
16705;SDS011;8469;60.136;15.180;2023-04-28T02:39:48;0.80;;;0.80;;
16705;SDS011;8469;60.136;15.180;2023-04-28T02:42:15;2.60;;;0.88;;
16705;SDS011;8469;60.136;15.180;2023-04-28T02:44:43;0.83;;;0.83;;
16705;SDS011;8469;60.136;15.180;2023-04-28T02:47:10;0.90;;;0.90;;
16705;SDS011;8469;60.136;15.180;2023-04-28T02:49:37;0.80;;;0.80;;
16705;SDS011;8469;60.136;15.180;2023-04-28T02:52:05;0.80;;;0.80;;
16705;SDS011;8469;60.136;15.180;2023-04-28T02:54:32;0.70;;;0.70;;
16705;SDS011;8469;60.136;15.180;2023-04-28T02:57:01;1.10;;;0.70;;
16705;SDS011;8469;60.136;15.180;2023-04-28T02:59:29;1.00;;;0.70;;
16705;SDS011;8469;60.136;15.180;2023-04-28T03:01:57;0.88;;;0.78;;
16705;SDS011;8469;60.136;15.180;2023-04-28T03:04:24;1.52;;;0.75;;
16705;SDS011;8469;60.136;15.180;2023-04-28T03:06:51;1.00;;;0.80;;
16705;SDS011;8469;60.136;15.180;2023-04-28T03:09:19;0.70;;;0.70;;
16705;SDS011;8469;60.136;15.180;2023-04-28T03:11:46;1.00;;;0.90;;
16705;SDS011;8469;60.136;15.180;2023-04-28T03:14:13;0.80;;;0.80;;
16705;SDS011;8469;60.136;15.180;2023-04-28T03:16:41;0.88;;;0.88;;
16705;SDS011;8469;60.136;15.180;2023-04-28T03:19:08;3.50;;;0.80;;
16705;SDS011;8469;60.136;15.180;2023-04-28T03:21:36;0.80;;;0.80;;
16705;SDS011;8469;60.136;15.180;2023-04-28T03:24:04;0.70;;;0.70;;
16705;SDS011;8469;60.136;15.180;2023-04-28T03:26:32;1.07;;;0.90;;
16705;SDS011;8469;60.136;15.180;2023-04-28T03:29:00;1.47;;;0.80;;
16705;SDS011;8469;60.136;15.180;2023-04-28T03:31:27;1.30;;;0.90;;
16705;SDS011;8469;60.136;15.180;2023-04-28T03:33:54;1.05;;;0.80;;
16705;SDS011;8469;60.136;15.180;2023-04-28T03:36:22;1.77;;;0.90;;
16705;SDS011;8469;60.136;15.180;2023-04-28T03:38:49;0.80;;;0.80;;
16705;SDS011;8469;60.136;15.180;2023-04-28T03:41:17;1.00;;;0.70;;
16705;SDS011;8469;60.136;15.180;2023-04-28T03:43:44;1.10;;;1.00;;
16705;SDS011;8469;60.136;15.180;2023-04-28T03:46:12;1.00;;;0.80;;
16705;SDS011;8469;60.136;15.180;2023-04-28T03:48:39;0.80;;;0.80;;
16705;SDS011;8469;60.136;15.180;2023-04-28T03:51:06;1.37;;;0.90;;
16705;SDS011;8469;60.136;15.180;2023-04-28T03:53:34;2.10;;;0.95;;
16705;SDS011;8469;60.136;15.180;2023-04-28T03:56:01;0.80;;;0.80;;
16705;SDS011;8469;60.136;15.180;2023-04-28T03:58:30;0.80;;;0.80;;
16705;SDS011;8469;60.136;15.180;2023-04-28T04:00:58;1.70;;;0.78;;
16705;SDS011;8469;60.136;15.180;2023-04-28T04:03:26;1.30;;;0.80;;
16705;SDS011;8469;60.136;15.180;2023-04-28T04:05:53;2.40;;;0.80;;
16705;SDS011;8469;60.136;15.180;2023-04-28T04:08:20;0.90;;;0.90;;
16705;SDS011;8469;60.136;15.180;2023-04-28T04:10:48;1.20;;;0.80;;
16705;SDS011;8469;60.136;15.180;2023-04-28T04:13:15;0.70;;;0.70;;
16705;SDS011;8469;60.136;15.180;2023-04-28T04:15:43;1.77;;;1.50;;
16705;SDS011;8469;60.136;15.180;2023-04-28T04:18:10;1.50;;;1.23;;
16705;SDS011;8469;60.136;15.180;2023-04-28T04:20:38;1.00;;;1.00;;
16705;SDS011;8469;60.136;15.180;2023-04-28T04:23:05;0.95;;;0.80;;
16705;SDS011;8469;60.136;15.180;2023-04-28T04:25:33;0.75;;;0.75;;
16705;SDS011;8469;60.136;15.180;2023-04-28T04:28:00;1.87;;;0.85;;
16705;SDS011;8469;60.136;15.180;2023-04-28T04:30:28;1.30;;;0.82;;
16705;SDS011;8469;60.136;15.180;2023-04-28T04:32:55;1.10;;;1.00;;
16705;SDS011;8469;60.136;15.180;2023-04-28T04:35:22;1.53;;;0.83;;
16705;SDS011;8469;60.136;15.180;2023-04-28T04:37:50;0.80;;;0.80;;
16705;SDS011;8469;60.136;15.180;2023-04-28T04:40:17;0.90;;;0.90;;
16705;SDS011;8469;60.136;15.180;2023-04-28T04:42:45;0.72;;;0.70;;
16705;SDS011;8469;60.136;15.180;2023-04-28T04:45:12;0.72;;;0.72;;
16705;SDS011;8469;60.136;15.180;2023-04-28T04:47:39;0.90;;;0.72;;
16705;SDS011;8469;60.136;15.180;2023-04-28T04:50:07;0.70;;;0.70;;
16705;SDS011;8469;60.136;15.180;2023-04-28T04:52:34;0.70;;;0.70;;
16705;SDS011;8469;60.136;15.180;2023-04-28T04:55:02;0.70;;;0.70;;
16705;SDS011;8469;60.136;15.180;2023-04-28T04:57:30;0.70;;;0.70;;
16705;SDS011;8469;60.136;15.180;2023-04-28T04:59:57;3.83;;;0.75;;
16705;SDS011;8469;60.136;15.180;2023-04-28T05:02:25;1.45;;;0.72;;
16705;SDS011;8469;60.136;15.180;2023-04-28T05:04:52;0.60;;;0.60;;
16705;SDS011;8469;60.136;15.180;2023-04-28T05:07:19;0.72;;;0.72;;
16705;SDS011;8469;60.136;15.180;2023-04-28T05:09:47;0.80;;;0.80;;
16705;SDS011;8469;60.136;15.180;2023-04-28T05:12:14;0.80;;;0.80;;
16705;SDS011;8469;60.136;15.180;2023-04-28T05:14:41;0.88;;;0.60;;
16705;SDS011;8469;60.136;15.180;2023-04-28T05:17:09;1.00;;;0.50;;
16705;SDS011;8469;60.136;15.180;2023-04-28T05:19:36;0.50;;;0.50;;
16705;SDS011;8469;60.136;15.180;2023-04-28T05:22:04;0.50;;;0.50;;
16705;SDS011;8469;60.136;15.180;2023-04-28T05:24:32;0.80;;;0.80;;
16705;SDS011;8469;60.136;15.180;2023-04-28T05:26:59;0.80;;;0.80;;
16705;SDS011;8469;60.136;15.180;2023-04-28T05:29:27;0.70;;;0.70;;
16705;SDS011;8469;60.136;15.180;2023-04-28T05:31:54;0.90;;;0.80;;
16705;SDS011;8469;60.136;15.180;2023-04-28T05:34:21;3.50;;;0.80;;
16705;SDS011;8469;60.136;15.180;2023-04-28T05:36:49;2.62;;;0.68;;
16705;SDS011;8469;60.136;15.180;2023-04-28T05:39:17;2.05;;;0.62;;
16705;SDS011;8469;60.136;15.180;2023-04-28T05:41:45;0.78;;;0.70;;
16705;SDS011;8469;60.136;15.180;2023-04-28T05:44:12;0.80;;;0.60;;
16705;SDS011;8469;60.136;15.180;2023-04-28T05:46:39;3.37;;;0.78;;
16705;SDS011;8469;60.136;15.180;2023-04-28T05:49:07;0.95;;;0.70;;
16705;SDS011;8469;60.136;15.180;2023-04-28T05:51:35;0.75;;;0.60;;
16705;SDS011;8469;60.136;15.180;2023-04-28T05:54:02;0.90;;;0.53;;
16705;SDS011;8469;60.136;15.180;2023-04-28T05:56:29;0.88;;;0.50;;
16705;SDS011;8469;60.136;15.180;2023-04-28T05:58:57;0.57;;;0.57;;
16705;SDS011;8469;60.136;15.180;2023-04-28T06:01:26;0.53;;;0.53;;
16705;SDS011;8469;60.136;15.180;2023-04-28T06:03:53;2.05;;;0.78;;
16705;SDS011;8469;60.136;15.180;2023-04-28T06:06:22;0.98;;;0.65;;
16705;SDS011;8469;60.136;15.180;2023-04-28T06:08:49;1.75;;;0.80;;
16705;SDS011;8469;60.136;15.180;2023-04-28T06:11:17;2.92;;;0.88;;
16705;SDS011;8469;60.136;15.180;2023-04-28T06:13:46;1.13;;;1.03;;
16705;SDS011;8469;60.136;15.180;2023-04-28T06:16:14;0.80;;;0.75;;
16705;SDS011;8469;60.136;15.180;2023-04-28T06:18:42;0.60;;;0.60;;
16705;SDS011;8469;60.136;15.180;2023-04-28T06:21:09;1.10;;;0.70;;
16705;SDS011;8469;60.136;15.180;2023-04-28T06:23:37;2.90;;;0.82;;
16705;SDS011;8469;60.136;15.180;2023-04-28T06:26:06;0.50;;;0.50;;
16705;SDS011;8469;60.136;15.180;2023-04-28T06:28:33;0.70;;;0.60;;
16705;SDS011;8469;60.136;15.180;2023-04-28T06:31:00;1.50;;;0.87;;
16705;SDS011;8469;60.136;15.180;2023-04-28T06:33:28;0.50;;;0.50;;
16705;SDS011;8469;60.136;15.180;2023-04-28T06:35:55;0.50;;;0.50;;
16705;SDS011;8469;60.136;15.180;2023-04-28T06:38:22;1.20;;;0.80;;
16705;SDS011;8469;60.136;15.180;2023-04-28T06:40:50;0.50;;;0.50;;
16705;SDS011;8469;60.136;15.180;2023-04-28T06:43:17;2.47;;;0.70;;
16705;SDS011;8469;60.136;15.180;2023-04-28T06:45:45;1.45;;;0.70;;
16705;SDS011;8469;60.136;15.180;2023-04-28T06:48:12;2.40;;;0.57;;
16705;SDS011;8469;60.136;15.180;2023-04-28T06:50:39;0.50;;;0.50;;
16705;SDS011;8469;60.136;15.180;2023-04-28T06:53:07;0.62;;;0.60;;
16705;SDS011;8469;60.136;15.180;2023-04-28T06:55:34;0.60;;;0.60;;
16705;SDS011;8469;60.136;15.180;2023-04-28T06:58:01;0.62;;;0.62;;
16705;SDS011;8469;60.136;15.180;2023-04-28T07:00:29;1.30;;;0.60;;
16705;SDS011;8469;60.136;15.180;2023-04-28T07:02:56;1.60;;;0.87;;
16705;SDS011;8469;60.136;15.180;2023-04-28T07:05:24;1.62;;;0.53;;
16705;SDS011;8469;60.136;15.180;2023-04-28T07:07:51;4.40;;;0.60;;
16705;SDS011;8469;60.136;15.180;2023-04-28T07:10:18;0.50;;;0.50;;
16705;SDS011;8469;60.136;15.180;2023-04-28T07:12:45;0.70;;;0.70;;
16705;SDS011;8469;60.136;15.180;2023-04-28T07:15:13;2.00;;;0.80;;
16705;SDS011;8469;60.136;15.180;2023-04-28T07:17:41;0.50;;;0.50;;
16705;SDS011;8469;60.136;15.180;2023-04-28T07:20:08;0.60;;;0.60;;
16705;SDS011;8469;60.136;15.180;2023-04-28T07:22:35;2.50;;;0.70;;
16705;SDS011;8469;60.136;15.180;2023-04-28T07:25:04;0.40;;;0.40;;
16705;SDS011;8469;60.136;15.180;2023-04-28T07:27:32;1.30;;;0.40;;
16705;SDS011;8469;60.136;15.180;2023-04-28T07:29:59;1.20;;;0.40;;
16705;SDS011;8469;60.136;15.180;2023-04-28T07:32:26;0.30;;;0.30;;
16705;SDS011;8469;60.136;15.180;2023-04-28T07:34:54;0.35;;;0.35;;
16705;SDS011;8469;60.136;15.180;2023-04-28T07:37:22;0.60;;;0.57;;
16705;SDS011;8469;60.136;15.180;2023-04-28T07:39:49;5.30;;;0.85;;
16705;SDS011;8469;60.136;15.180;2023-04-28T07:42:16;6.97;;;1.00;;
16705;SDS011;8469;60.136;15.180;2023-04-28T07:44:44;1.47;;;0.90;;
16705;SDS011;8469;60.136;15.180;2023-04-28T07:47:11;1.60;;;0.60;;
16705;SDS011;8469;60.136;15.180;2023-04-28T07:49:39;1.17;;;0.53;;
16705;SDS011;8469;60.136;15.180;2023-04-28T07:52:06;0.80;;;0.47;;
16705;SDS011;8469;60.136;15.180;2023-04-28T07:54:35;1.90;;;0.47;;
16705;SDS011;8469;60.136;15.180;2023-04-28T07:57:02;1.80;;;0.40;;
16705;SDS011;8469;60.136;15.180;2023-04-28T07:59:32;2.70;;;0.60;;
16705;SDS011;8469;60.136;15.180;2023-04-28T08:01:59;0.50;;;0.50;;
16705;SDS011;8469;60.136;15.180;2023-04-28T08:04:27;0.50;;;0.50;;
16705;SDS011;8469;60.136;15.180;2023-04-28T08:06:56;0.40;;;0.40;;
16705;SDS011;8469;60.136;15.180;2023-04-28T08:09:23;2.45;;;0.50;;
16705;SDS011;8469;60.136;15.180;2023-04-28T08:11:51;0.98;;;0.60;;
16705;SDS011;8469;60.136;15.180;2023-04-28T08:14:19;2.00;;;0.60;;
16705;SDS011;8469;60.136;15.180;2023-04-28T08:16:46;1.45;;;0.57;;
16705;SDS011;8469;60.136;15.180;2023-04-28T08:19:14;0.40;;;0.40;;
16705;SDS011;8469;60.136;15.180;2023-04-28T08:21:41;1.73;;;0.47;;
16705;SDS011;8469;60.136;15.180;2023-04-28T08:24:09;2.40;;;0.40;;
16705;SDS011;8469;60.136;15.180;2023-04-28T08:26:36;1.42;;;0.40;;
16705;SDS011;8469;60.136;15.180;2023-04-28T08:29:04;0.30;;;0.30;;
16705;SDS011;8469;60.136;15.180;2023-04-28T08:31:31;1.20;;;0.68;;
16705;SDS011;8469;60.136;15.180;2023-04-28T08:33:59;8.18;;;0.50;;
16705;SDS011;8469;60.136;15.180;2023-04-28T08:36:26;0.90;;;0.40;;
16705;SDS011;8469;60.136;15.180;2023-04-28T08:38:55;0.90;;;0.50;;
16705;SDS011;8469;60.136;15.180;2023-04-28T08:41:24;2.37;;;0.50;;
16705;SDS011;8469;60.136;15.180;2023-04-28T08:43:53;0.70;;;0.55;;
16705;SDS011;8469;60.136;15.180;2023-04-28T08:46:20;4.40;;;0.60;;
16705;SDS011;8469;60.136;15.180;2023-04-28T08:48:48;0.40;;;0.40;;
16705;SDS011;8469;60.136;15.180;2023-04-28T08:51:18;0.70;;;0.70;;
16705;SDS011;8469;60.136;15.180;2023-04-28T08:53:48;1.70;;;0.50;;
16705;SDS011;8469;60.136;15.180;2023-04-28T08:56:16;1.70;;;0.72;;
16705;SDS011;8469;60.136;15.180;2023-04-28T08:58:44;1.25;;;0.80;;
16705;SDS011;8469;60.136;15.180;2023-04-28T09:01:11;1.10;;;0.53;;
16705;SDS011;8469;60.136;15.180;2023-04-28T09:03:39;0.70;;;0.50;;
16705;SDS011;8469;60.136;15.180;2023-04-28T09:06:07;1.55;;;0.70;;
16705;SDS011;8469;60.136;15.180;2023-04-28T09:08:34;1.60;;;0.90;;
16705;SDS011;8469;60.136;15.180;2023-04-28T09:11:08;1.60;;;0.50;;
16705;SDS011;8469;60.136;15.180;2023-04-28T09:13:34;2.30;;;0.40;;
16705;SDS011;8469;60.136;15.180;2023-04-28T09:16:02;0.20;;;0.20;;
16705;SDS011;8469;60.136;15.180;2023-04-28T09:18:31;1.15;;;0.33;;
16705;SDS011;8469;60.136;15.180;2023-04-28T09:21:09;0.93;;;0.20;;
16705;SDS011;8469;60.136;15.180;2023-04-28T09:23:34;1.37;;;0.40;;
16705;SDS011;8469;60.136;15.180;2023-04-28T09:26:02;0.53;;;0.47;;
16705;SDS011;8469;60.136;15.180;2023-04-28T09:28:30;1.05;;;0.40;;
16705;SDS011;8469;60.136;15.180;2023-04-28T09:30:58;2.60;;;0.30;;
16705;SDS011;8469;60.136;15.180;2023-04-28T09:33:25;2.25;;;0.50;;
16705;SDS011;8469;60.136;15.180;2023-04-28T09:35:52;0.55;;;0.33;;
16705;SDS011;8469;60.136;15.180;2023-04-28T09:38:20;1.00;;;0.20;;
16705;SDS011;8469;60.136;15.180;2023-04-28T09:40:55;0.63;;;0.47;;
16705;SDS011;8469;60.136;15.180;2023-04-28T09:43:33;1.60;;;0.40;;
16705;SDS011;8469;60.136;15.180;2023-04-28T09:46:01;3.40;;;0.47;;
16705;SDS011;8469;60.136;15.180;2023-04-28T09:48:30;1.10;;;0.40;;
16705;SDS011;8469;60.136;15.180;2023-04-28T09:50:58;2.90;;;0.60;;
16705;SDS011;8469;60.136;15.180;2023-04-28T09:53:26;2.40;;;0.43;;
16705;SDS011;8469;60.136;15.180;2023-04-28T09:55:55;1.30;;;0.40;;
16705;SDS011;8469;60.136;15.180;2023-04-28T09:58:24;0.30;;;0.30;;
16705;SDS011;8469;60.136;15.180;2023-04-28T10:00:55;0.60;;;0.30;;
16705;SDS011;8469;60.136;15.180;2023-04-28T10:03:24;2.50;;;0.42;;
16705;SDS011;8469;60.136;15.180;2023-04-28T10:05:52;3.10;;;0.40;;
16705;SDS011;8469;60.136;15.180;2023-04-28T10:08:20;2.00;;;0.42;;
16705;SDS011;8469;60.136;15.180;2023-04-28T10:10:48;0.33;;;0.33;;
16705;SDS011;8469;60.136;15.180;2023-04-28T10:13:16;1.30;;;0.40;;
16705;SDS011;8469;60.136;15.180;2023-04-28T10:15:45;0.50;;;0.35;;
16705;SDS011;8469;60.136;15.180;2023-04-28T10:18:13;1.00;;;0.40;;
16705;SDS011;8469;60.136;15.180;2023-04-28T10:20:54;1.90;;;0.30;;
16705;SDS011;8469;60.136;15.180;2023-04-28T10:23:30;2.90;;;0.40;;
16705;SDS011;8469;60.136;15.180;2023-04-28T10:25:57;2.10;;;0.33;;
16705;SDS011;8469;60.136;15.180;2023-04-28T10:28:28;7.47;;;0.50;;
16705;SDS011;8469;60.136;15.180;2023-04-28T10:31:08;3.20;;;0.40;;
16705;SDS011;8469;60.136;15.180;2023-04-28T10:33:37;0.37;;;0.30;;
16705;SDS011;8469;60.136;15.180;2023-04-28T10:36:05;2.70;;;0.40;;
16705;SDS011;8469;60.136;15.180;2023-04-28T10:38:33;3.30;;;0.55;;
16705;SDS011;8469;60.136;15.180;2023-04-28T10:41:01;1.00;;;0.60;;
16705;SDS011;8469;60.136;15.180;2023-04-28T10:58:45;1.75;;;0.40;;
16705;SDS011;8469;60.136;15.180;2023-04-28T11:03:55;2.35;;;0.50;;
16705;SDS011;8469;60.136;15.180;2023-04-28T11:14:30;0.40;;;0.40;;
16705;SDS011;8469;60.136;15.180;2023-04-28T11:17:09;0.90;;;0.40;;
16705;SDS011;8469;60.136;15.180;2023-04-28T11:19:34;2.47;;;0.50;;
16705;SDS011;8469;60.136;15.180;2023-04-28T11:22:12;2.83;;;0.40;;
16705;SDS011;8469;60.136;15.180;2023-04-28T11:24:32;0.60;;;0.60;;
16705;SDS011;8469;60.136;15.180;2023-04-28T11:26:59;3.50;;;0.60;;
16705;SDS011;8469;60.136;15.180;2023-04-28T11:29:37;3.22;;;0.70;;
16705;SDS011;8469;60.136;15.180;2023-04-28T11:32:05;1.30;;;0.70;;
16705;SDS011;8469;60.136;15.180;2023-04-28T11:34:34;0.98;;;0.65;;
16705;SDS011;8469;60.136;15.180;2023-04-28T11:37:02;0.55;;;0.55;;
16705;SDS011;8469;60.136;15.180;2023-04-28T11:39:33;2.00;;;0.60;;
16705;SDS011;8469;60.136;15.180;2023-04-28T11:42:01;0.50;;;0.50;;
16705;SDS011;8469;60.136;15.180;2023-04-28T11:44:29;0.80;;;0.40;;
16705;SDS011;8469;60.136;15.180;2023-04-28T11:46:59;0.42;;;0.40;;
16705;SDS011;8469;60.136;15.180;2023-04-28T11:49:27;5.25;;;0.70;;
16705;SDS011;8469;60.136;15.180;2023-04-28T11:51:56;3.92;;;0.55;;
16705;SDS011;8469;60.136;15.180;2023-04-28T11:54:26;1.50;;;0.50;;
16705;SDS011;8469;60.136;15.180;2023-04-28T11:56:54;4.10;;;0.53;;
16705;SDS011;8469;60.136;15.180;2023-04-28T11:59:26;0.40;;;0.40;;
16705;SDS011;8469;60.136;15.180;2023-04-28T12:01:54;5.20;;;0.70;;
16705;SDS011;8469;60.136;15.180;2023-04-28T12:04:30;4.37;;;0.60;;
16705;SDS011;8469;60.136;15.180;2023-04-28T12:07:05;5.87;;;0.65;;
16705;SDS011;8469;60.136;15.180;2023-04-28T12:09:32;1.17;;;0.50;;
16705;SDS011;8469;60.136;15.180;2023-04-28T12:12:01;1.77;;;0.55;;
16705;SDS011;8469;60.136;15.180;2023-04-28T12:14:30;2.95;;;0.42;;
16705;SDS011;8469;60.136;15.180;2023-04-28T12:16:59;3.50;;;0.72;;
16705;SDS011;8469;60.136;15.180;2023-04-28T12:19:27;0.40;;;0.40;;
16705;SDS011;8469;60.136;15.180;2023-04-28T12:21:58;2.02;;;0.60;;
16705;SDS011;8469;60.136;15.180;2023-04-28T12:24:26;1.50;;;0.80;;
16705;SDS011;8469;60.136;15.180;2023-04-28T12:26:53;3.70;;;0.65;;
16705;SDS011;8469;60.136;15.180;2023-04-28T12:29:37;0.50;;;0.40;;
16705;SDS011;8469;60.136;15.180;2023-04-28T12:32:09;1.20;;;0.40;;
16705;SDS011;8469;60.136;15.180;2023-04-28T12:34:36;1.37;;;0.50;;
16705;SDS011;8469;60.136;15.180;2023-04-28T12:37:06;1.40;;;0.70;;
16705;SDS011;8469;60.136;15.180;2023-04-28T12:39:34;2.75;;;0.70;;
16705;SDS011;8469;60.136;15.180;2023-04-28T12:42:02;2.40;;;0.65;;
16705;SDS011;8469;60.136;15.180;2023-04-28T12:44:33;2.72;;;0.60;;
16705;SDS011;8469;60.136;15.180;2023-04-28T12:47:02;1.17;;;0.70;;
16705;SDS011;8469;60.136;15.180;2023-04-28T12:49:29;0.55;;;0.50;;
16705;SDS011;8469;60.136;15.180;2023-04-28T12:51:57;4.27;;;0.50;;
16705;SDS011;8469;60.136;15.180;2023-04-28T12:54:24;1.30;;;0.40;;
16705;SDS011;8469;60.136;15.180;2023-04-28T12:56:52;1.98;;;0.60;;
16705;SDS011;8469;60.136;15.180;2023-04-28T12:59:22;2.43;;;0.50;;
16705;SDS011;8469;60.136;15.180;2023-04-28T13:01:50;2.77;;;0.45;;
16705;SDS011;8469;60.136;15.180;2023-04-28T13:04:17;0.80;;;0.72;;
16705;SDS011;8469;60.136;15.180;2023-04-28T13:06:45;1.82;;;0.50;;
16705;SDS011;8469;60.136;15.180;2023-04-28T13:09:12;5.03;;;0.60;;
16705;SDS011;8469;60.136;15.180;2023-04-28T13:11:43;0.60;;;0.50;;
16705;SDS011;8469;60.136;15.180;2023-04-28T13:14:13;1.80;;;0.80;;
16705;SDS011;8469;60.136;15.180;2023-04-28T13:16:40;4.05;;;0.60;;
16705;SDS011;8469;60.136;15.180;2023-04-28T13:19:08;0.97;;;0.60;;
16705;SDS011;8469;60.136;15.180;2023-04-28T13:21:37;0.40;;;0.40;;
16705;SDS011;8469;60.136;15.180;2023-04-28T13:24:05;0.67;;;0.67;;
16705;SDS011;8469;60.136;15.180;2023-04-28T13:26:32;1.00;;;0.80;;
16705;SDS011;8469;60.136;15.180;2023-04-28T13:29:00;1.15;;;0.42;;
16705;SDS011;8469;60.136;15.180;2023-04-28T13:31:29;2.85;;;0.68;;
16705;SDS011;8469;60.136;15.180;2023-04-28T13:33:57;4.92;;;0.70;;
16705;SDS011;8469;60.136;15.180;2023-04-28T13:36:26;2.37;;;0.65;;
16705;SDS011;8469;60.136;15.180;2023-04-28T13:38:55;3.35;;;0.80;;
16705;SDS011;8469;60.136;15.180;2023-04-28T13:41:22;0.50;;;0.50;;
16705;SDS011;8469;60.136;15.180;2023-04-28T13:43:51;1.22;;;0.50;;
16705;SDS011;8469;60.136;15.180;2023-04-28T13:46:18;2.40;;;0.60;;
16705;SDS011;8469;60.136;15.180;2023-04-28T13:48:47;1.90;;;0.40;;
16705;SDS011;8469;60.136;15.180;2023-04-28T13:51:15;5.58;;;0.80;;
16705;SDS011;8469;60.136;15.180;2023-04-28T13:53:43;0.60;;;0.60;;
16705;SDS011;8469;60.136;15.180;2023-04-28T13:56:10;0.60;;;0.60;;
16705;SDS011;8469;60.136;15.180;2023-04-28T13:58:37;1.35;;;0.57;;
16705;SDS011;8469;60.136;15.180;2023-04-28T14:01:05;1.02;;;0.60;;
16705;SDS011;8469;60.136;15.180;2023-04-28T14:03:32;1.40;;;0.80;;
16705;SDS011;8469;60.136;15.180;2023-04-28T14:06:01;0.98;;;0.95;;
16705;SDS011;8469;60.136;15.180;2023-04-28T14:08:29;0.78;;;0.68;;
16705;SDS011;8469;60.136;15.180;2023-04-28T14:10:57;2.40;;;0.60;;
16705;SDS011;8469;60.136;15.180;2023-04-28T14:13:25;1.65;;;0.70;;
16705;SDS011;8469;60.136;15.180;2023-04-28T14:15:52;1.70;;;0.75;;
16705;SDS011;8469;60.136;15.180;2023-04-28T14:18:19;0.77;;;0.60;;
16705;SDS011;8469;60.136;15.180;2023-04-28T14:20:47;0.62;;;0.62;;
16705;SDS011;8469;60.136;15.180;2023-04-28T14:23:15;0.60;;;0.60;;
16705;SDS011;8469;60.136;15.180;2023-04-28T14:25:42;1.07;;;0.62;;
16705;SDS011;8469;60.136;15.180;2023-04-28T14:28:10;2.92;;;0.50;;
16705;SDS011;8469;60.136;15.180;2023-04-28T14:30:37;0.50;;;0.50;;
16705;SDS011;8469;60.136;15.180;2023-04-28T14:33:04;0.60;;;0.60;;
16705;SDS011;8469;60.136;15.180;2023-04-28T14:35:32;0.50;;;0.50;;
16705;SDS011;8469;60.136;15.180;2023-04-28T14:38:02;2.15;;;0.70;;
16705;SDS011;8469;60.136;15.180;2023-04-28T14:40:28;0.57;;;0.53;;
16705;SDS011;8469;60.136;15.180;2023-04-28T14:42:57;5.75;;;0.70;;
16705;SDS011;8469;60.136;15.180;2023-04-28T14:45:29;2.42;;;1.05;;
16705;SDS011;8469;60.136;15.180;2023-04-28T14:47:54;0.40;;;0.40;;
16705;SDS011;8469;60.136;15.180;2023-04-28T14:50:21;0.50;;;0.50;;
16705;SDS011;8469;60.136;15.180;2023-04-28T14:52:49;0.88;;;0.60;;
16705;SDS011;8469;60.136;15.180;2023-04-28T14:55:17;1.60;;;0.50;;
16705;SDS011;8469;60.136;15.180;2023-04-28T14:57:44;0.50;;;0.50;;
16705;SDS011;8469;60.136;15.180;2023-04-28T15:00:13;1.85;;;0.60;;
16705;SDS011;8469;60.136;15.180;2023-04-28T15:02:41;1.67;;;0.57;;
16705;SDS011;8469;60.136;15.180;2023-04-28T15:05:08;1.27;;;0.55;;
16705;SDS011;8469;60.136;15.180;2023-04-28T15:07:36;0.53;;;0.50;;
16705;SDS011;8469;60.136;15.180;2023-04-28T15:10:08;1.00;;;0.50;;
16705;SDS011;8469;60.136;15.180;2023-04-28T15:12:32;2.60;;;0.57;;
16705;SDS011;8469;60.136;15.180;2023-04-28T15:15:00;2.00;;;0.50;;
16705;SDS011;8469;60.136;15.180;2023-04-28T15:17:27;1.00;;;0.60;;
16705;SDS011;8469;60.136;15.180;2023-04-28T15:19:54;0.50;;;0.50;;
16705;SDS011;8469;60.136;15.180;2023-04-28T15:22:22;0.80;;;0.60;;
16705;SDS011;8469;60.136;15.180;2023-04-28T15:24:50;6.35;;;0.90;;
16705;SDS011;8469;60.136;15.180;2023-04-28T15:27:17;0.90;;;0.50;;